sensor_id;sensor_type;location;lat;lon;timestamp;pressure;altitude;pressure_sealevel;temperature;humidity
53522;BME280;39398;48.382;9.802;2022-08-21T00:00:00;94028.78;;;15.26;74.88
53522;BME280;39398;48.382;9.802;2022-08-21T00:01:03;94030.63;;;15.25;74.70
53522;BME280;39398;48.382;9.802;2022-08-21T00:02:13;94021.00;;;15.24;74.55
53522;BME280;39398;48.382;9.802;2022-08-21T00:03:15;94025.31;;;15.25;74.65
53522;BME280;39398;48.382;9.802;2022-08-21T00:04:17;94028.59;;;15.21;74.38
53522;BME280;39398;48.382;9.802;2022-08-21T00:05:24;94029.19;;;15.23;74.52
53522;BME280;39398;48.382;9.802;2022-08-21T00:06:27;94023.50;;;15.19;74.48
53522;BME280;39398;48.382;9.802;2022-08-21T00:07:29;94029.41;;;15.21;74.61
53522;BME280;39398;48.382;9.802;2022-08-21T00:08:30;94019.91;;;15.32;73.83
53522;BME280;39398;48.382;9.802;2022-08-21T00:09:32;94026.47;;;15.29;74.03
53522;BME280;39398;48.382;9.802;2022-08-21T00:10:33;94019.38;;;15.23;74.18
53522;BME280;39398;48.382;9.802;2022-08-21T00:11:37;94023.59;;;15.31;74.03
53522;BME280;39398;48.382;9.802;2022-08-21T00:12:40;94023.22;;;15.27;74.06
53522;BME280;39398;48.382;9.802;2022-08-21T00:13:42;94026.69;;;15.28;74.06
53522;BME280;39398;48.382;9.802;2022-08-21T00:14:44;94023.88;;;15.23;74.35
53522;BME280;39398;48.382;9.802;2022-08-21T00:15:48;94019.13;;;15.25;73.92
53522;BME280;39398;48.382;9.802;2022-08-21T00:16:50;94019.53;;;15.28;73.57
53522;BME280;39398;48.382;9.802;2022-08-21T00:17:53;94019.13;;;15.25;73.73
53522;BME280;39398;48.382;9.802;2022-08-21T00:18:55;94020.94;;;15.31;73.53
53522;BME280;39398;48.382;9.802;2022-08-21T00:19:56;94016.72;;;15.23;73.90
53522;BME280;39398;48.382;9.802;2022-08-21T00:20:58;94021.16;;;15.29;73.63
53522;BME280;39398;48.382;9.802;2022-08-21T00:22:01;94017.16;;;15.20;74.22
53522;BME280;39398;48.382;9.802;2022-08-21T00:23:03;94020.78;;;15.26;73.51
53522;BME280;39398;48.382;9.802;2022-08-21T00:24:05;94013.88;;;15.18;73.71
53522;BME280;39398;48.382;9.802;2022-08-21T00:25:09;94013.69;;;15.20;73.87
53522;BME280;39398;48.382;9.802;2022-08-21T00:26:10;94013.69;;;15.20;73.88
53522;BME280;39398;48.382;9.802;2022-08-21T00:27:12;94007.13;;;15.22;73.34
53522;BME280;39398;48.382;9.802;2022-08-21T00:28:14;94010.97;;;15.26;73.31
53522;BME280;39398;48.382;9.802;2022-08-21T00:29:16;94014.25;;;15.22;73.51
53522;BME280;39398;48.382;9.802;2022-08-21T00:30:19;94016.09;;;15.21;73.52
53522;BME280;39398;48.382;9.802;2022-08-21T00:31:23;94008.94;;;15.22;73.58
53522;BME280;39398;48.382;9.802;2022-08-21T00:32:26;94006.34;;;15.15;73.65
53522;BME280;39398;48.382;9.802;2022-08-21T00:33:28;94010.84;;;15.15;73.86
53522;BME280;39398;48.382;9.802;2022-08-21T00:34:30;94003.09;;;15.13;73.87
53522;BME280;39398;48.382;9.802;2022-08-21T00:35:37;94010.66;;;15.16;73.66
53522;BME280;39398;48.382;9.802;2022-08-21T00:36:39;94009.00;;;15.15;73.60
53522;BME280;39398;48.382;9.802;2022-08-21T00:37:43;94008.78;;;15.17;73.80
53522;BME280;39398;48.382;9.802;2022-08-21T00:38:44;94012.31;;;15.10;73.93
53522;BME280;39398;48.382;9.802;2022-08-21T00:39:46;94008.69;;;15.05;73.90
53522;BME280;39398;48.382;9.802;2022-08-21T00:40:49;94011.56;;;15.03;74.18
53522;BME280;39398;48.382;9.802;2022-08-21T00:41:51;94009.78;;;14.97;74.28
53522;BME280;39398;48.382;9.802;2022-08-21T00:42:53;94009.91;;;15.02;73.77
53522;BME280;39398;48.382;9.802;2022-08-21T00:43:55;94013.41;;;15.03;73.77
53522;BME280;39398;48.382;9.802;2022-08-21T00:44:56;94007.63;;;15.06;73.57
53522;BME280;39398;48.382;9.802;2022-08-21T00:45:58;94010.91;;;15.08;73.80
53522;BME280;39398;48.382;9.802;2022-08-21T00:47:00;94004.59;;;15.02;73.55
53522;BME280;39398;48.382;9.802;2022-08-21T00:48:03;94001.31;;;15.07;73.60
53522;BME280;39398;48.382;9.802;2022-08-21T00:49:05;94004.78;;;15.07;73.28
53522;BME280;39398;48.382;9.802;2022-08-21T00:50:09;94006.31;;;14.97;73.55
53522;BME280;39398;48.382;9.802;2022-08-21T00:51:27;93999.66;;;15.06;73.23
53522;BME280;39398;48.382;9.802;2022-08-21T00:52:31;94004.03;;;15.00;73.22
53522;BME280;39398;48.382;9.802;2022-08-21T00:53:38;94003.22;;;15.00;73.19
53522;BME280;39398;48.382;9.802;2022-08-21T00:54:41;93997.22;;;15.04;73.38
53522;BME280;39398;48.382;9.802;2022-08-21T00:55:47;93992.97;;;15.03;73.09
53522;BME280;39398;48.382;9.802;2022-08-21T00:56:52;93993.59;;;14.99;72.88
53522;BME280;39398;48.382;9.802;2022-08-21T00:57:57;93990.94;;;14.99;73.14
53522;BME280;39398;48.382;9.802;2022-08-21T00:59:00;93989.09;;;14.99;72.70
53522;BME280;39398;48.382;9.802;2022-08-21T01:00:08;93988.28;;;14.99;72.95
53522;BME280;39398;48.382;9.802;2022-08-21T01:01:10;93994.81;;;15.03;72.76
53522;BME280;39398;48.382;9.802;2022-08-21T01:02:12;93992.16;;;14.96;72.48
53522;BME280;39398;48.382;9.802;2022-08-21T01:03:16;93991.78;;;14.93;72.97
53522;BME280;39398;48.382;9.802;2022-08-21T01:04:18;93990.13;;;14.98;72.63
53522;BME280;39398;48.382;9.802;2022-08-21T01:05:20;93986.41;;;14.99;72.73
53522;BME280;39398;48.382;9.802;2022-08-21T01:06:22;93986.66;;;14.98;72.29
53522;BME280;39398;48.382;9.802;2022-08-21T01:07:23;93991.97;;;14.98;72.57
53522;BME280;39398;48.382;9.802;2022-08-21T01:08:28;93993.44;;;14.94;72.80
53522;BME280;39398;48.382;9.802;2022-08-21T01:09:31;94000.19;;;14.89;72.81
53522;BME280;39398;48.382;9.802;2022-08-21T01:10:33;93988.94;;;14.94;72.78
53522;BME280;39398;48.382;9.802;2022-08-21T01:11:38;93992.66;;;14.86;73.08
53522;BME280;39398;48.382;9.802;2022-08-21T01:12:41;93990.44;;;14.83;73.36
53522;BME280;39398;48.382;9.802;2022-08-21T01:13:43;93991.84;;;14.86;73.03
53522;BME280;39398;48.382;9.802;2022-08-21T01:14:45;93989.66;;;14.76;73.07
53522;BME280;39398;48.382;9.802;2022-08-21T01:15:49;93987.81;;;14.77;73.26
53522;BME280;39398;48.382;9.802;2022-08-21T01:16:52;93981.94;;;14.75;73.30
53522;BME280;39398;48.382;9.802;2022-08-21T01:17:55;93990.84;;;14.80;73.31
53522;BME280;39398;48.382;9.802;2022-08-21T01:18:57;93983.53;;;14.76;73.27
53522;BME280;39398;48.382;9.802;2022-08-21T01:20:00;93987.06;;;14.70;73.66
53522;BME280;39398;48.382;9.802;2022-08-21T01:21:06;93982.19;;;14.67;73.78
53522;BME280;39398;48.382;9.802;2022-08-21T01:22:09;93981.41;;;14.59;74.04
53522;BME280;39398;48.382;9.802;2022-08-21T01:23:10;93981.84;;;14.56;74.14
53522;BME280;39398;48.382;9.802;2022-08-21T01:24:13;93981.41;;;14.59;74.18
53522;BME280;39398;48.382;9.802;2022-08-21T01:25:16;93979.59;;;14.53;74.05
53522;BME280;39398;48.382;9.802;2022-08-21T01:26:21;93980.00;;;14.50;74.35
53522;BME280;39398;48.382;9.802;2022-08-21T01:27:34;93977.19;;;14.52;74.30
53522;BME280;39398;48.382;9.802;2022-08-21T01:28:38;93969.59;;;14.55;74.11
53522;BME280;39398;48.382;9.802;2022-08-21T01:29:44;93980.66;;;14.52;74.25
53522;BME280;39398;48.382;9.802;2022-08-21T01:30:48;93964.72;;;14.52;74.03
53522;BME280;39398;48.382;9.802;2022-08-21T01:31:51;93968.78;;;14.48;74.37
53522;BME280;39398;48.382;9.802;2022-08-21T01:32:53;93965.91;;;14.50;74.44
53522;BME280;39398;48.382;9.802;2022-08-21T01:33:56;93968.19;;;14.46;74.50
53522;BME280;39398;48.382;9.802;2022-08-21T01:34:57;93968.19;;;14.46;74.21
53522;BME280;39398;48.382;9.802;2022-08-21T01:35:59;93966.53;;;14.45;74.42
53522;BME280;39398;48.382;9.802;2022-08-21T01:37:02;93968.56;;;14.50;73.95
53522;BME280;39398;48.382;9.802;2022-08-21T01:38:04;93968.78;;;14.48;74.05
53522;BME280;39398;48.382;9.802;2022-08-21T01:39:08;93965.31;;;14.48;73.87
53522;BME280;39398;48.382;9.802;2022-08-21T01:40:11;93964.47;;;14.54;73.43
53522;BME280;39398;48.382;9.802;2022-08-21T01:41:13;93968.56;;;14.56;73.75
53522;BME280;39398;48.382;9.802;2022-08-21T01:42:15;93969.16;;;14.58;73.54
53522;BME280;39398;48.382;9.802;2022-08-21T01:43:16;93964.06;;;14.57;73.51
53522;BME280;39398;48.382;9.802;2022-08-21T01:44:25;93972.44;;;14.54;73.83
53522;BME280;39398;48.382;9.802;2022-08-21T01:45:26;93971.41;;;14.55;73.54
53522;BME280;39398;48.382;9.802;2022-08-21T01:46:28;93973.63;;;14.58;73.38
53522;BME280;39398;48.382;9.802;2022-08-21T01:47:29;93968.19;;;14.53;73.65
53522;BME280;39398;48.382;9.802;2022-08-21T01:48:31;93969.19;;;14.45;73.91
53522;BME280;39398;48.382;9.802;2022-08-21T01:49:33;93971.88;;;14.52;73.71
53522;BME280;39398;48.382;9.802;2022-08-21T01:50:35;93970.22;;;14.51;73.98
53522;BME280;39398;48.382;9.802;2022-08-21T01:51:36;93971.84;;;14.45;74.22
53522;BME280;39398;48.382;9.802;2022-08-21T01:52:39;93971.44;;;14.48;73.75
53522;BME280;39398;48.382;9.802;2022-08-21T01:53:41;93971.84;;;14.45;73.87
53522;BME280;39398;48.382;9.802;2022-08-21T01:54:43;93982.06;;;14.48;73.65
53522;BME280;39398;48.382;9.802;2022-08-21T01:55:45;93973.47;;;14.53;73.69
53522;BME280;39398;48.382;9.802;2022-08-21T01:56:48;93967.97;;;14.48;73.73
53522;BME280;39398;48.382;9.802;2022-08-21T01:57:51;93979.19;;;14.50;73.14
53522;BME280;39398;48.382;9.802;2022-08-21T01:58:53;93973.06;;;14.56;73.49
53522;BME280;39398;48.382;9.802;2022-08-21T01:59:54;93972.69;;;14.52;73.54
53522;BME280;39398;48.382;9.802;2022-08-21T02:00:56;93969.28;;;14.32;74.11
53522;BME280;39398;48.382;9.802;2022-08-21T02:01:57;93974.00;;;14.30;74.63
53522;BME280;39398;48.382;9.802;2022-08-21T02:02:59;93973.94;;;14.43;73.68
53522;BME280;39398;48.382;9.802;2022-08-21T02:04:01;93969.22;;;14.52;73.35
53522;BME280;39398;48.382;9.802;2022-08-21T02:05:03;93968.97;;;14.53;72.96
53522;BME280;39398;48.382;9.802;2022-08-21T02:06:06;93966.09;;;14.55;72.95
53522;BME280;39398;48.382;9.802;2022-08-21T02:07:08;93965.97;;;14.43;73.07
53522;BME280;39398;48.382;9.802;2022-08-21T02:08:12;93964.72;;;14.46;72.81
53522;BME280;39398;48.382;9.802;2022-08-21T02:09:14;93964.31;;;14.42;72.72
53522;BME280;39398;48.382;9.802;2022-08-21T02:10:19;93964.34;;;14.35;72.99
53522;BME280;39398;48.382;9.802;2022-08-21T02:11:21;93959.22;;;14.40;72.93
53522;BME280;39398;48.382;9.802;2022-08-21T02:12:22;93955.34;;;14.43;72.87
53522;BME280;39398;48.382;9.802;2022-08-21T02:13:24;93962.09;;;14.39;72.73
53522;BME280;39398;48.382;9.802;2022-08-21T02:14:25;93961.50;;;14.37;72.73
53522;BME280;39398;48.382;9.802;2022-08-21T02:15:33;93959.47;;;14.39;72.55
53522;BME280;39398;48.382;9.802;2022-08-21T02:16:34;93958.19;;;14.41;72.32
53522;BME280;39398;48.382;9.802;2022-08-21T02:17:39;93964.53;;;14.40;72.34
53522;BME280;39398;48.382;9.802;2022-08-21T02:18:41;93953.56;;;14.30;72.83
53522;BME280;39398;48.382;9.802;2022-08-21T02:19:42;93950.91;;;14.30;72.71
53522;BME280;39398;48.382;9.802;2022-08-21T02:20:46;93954.69;;;14.09;73.24
53522;BME280;39398;48.382;9.802;2022-08-21T02:21:47;93952.16;;;14.28;73.01
53522;BME280;39398;48.382;9.802;2022-08-21T02:22:49;93954.84;;;14.21;73.17
53522;BME280;39398;48.382;9.802;2022-08-21T02:23:52;93957.31;;;14.16;73.92
53522;BME280;39398;48.382;9.802;2022-08-21T02:24:54;93956.00;;;14.32;73.23
53522;BME280;39398;48.382;9.802;2022-08-21T02:25:56;93949.06;;;14.31;73.11
53522;BME280;39398;48.382;9.802;2022-08-21T02:26:58;93957.03;;;14.31;73.08
53522;BME280;39398;48.382;9.802;2022-08-21T02:28:03;93946.84;;;14.28;73.07
53522;BME280;39398;48.382;9.802;2022-08-21T02:29:05;93951.75;;;14.24;73.32
53522;BME280;39398;48.382;9.802;2022-08-21T02:30:10;93950.16;;;14.23;73.27
53522;BME280;39398;48.382;9.802;2022-08-21T02:31:12;93940.97;;;14.19;73.56
53522;BME280;39398;48.382;9.802;2022-08-21T02:32:14;93948.53;;;14.15;73.68
53522;BME280;39398;48.382;9.802;2022-08-21T02:33:16;93945.06;;;14.15;73.82
53522;BME280;39398;48.382;9.802;2022-08-21T02:34:18;93948.75;;;14.14;73.90
53522;BME280;39398;48.382;9.802;2022-08-21T02:35:20;93948.75;;;14.14;73.96
53522;BME280;39398;48.382;9.802;2022-08-21T02:36:21;93949.78;;;14.13;73.92
53522;BME280;39398;48.382;9.802;2022-08-21T02:37:23;93949.22;;;14.04;74.22
53522;BME280;39398;48.382;9.802;2022-08-21T02:38:27;93945.34;;;14.00;74.48
53522;BME280;39398;48.382;9.802;2022-08-21T02:39:30;93951.06;;;13.97;74.59
53522;BME280;39398;48.382;9.802;2022-08-21T02:40:33;93949.88;;;13.93;74.65
53522;BME280;39398;48.382;9.802;2022-08-21T02:41:35;93950.09;;;13.91;74.75
53522;BME280;39398;48.382;9.802;2022-08-21T02:42:37;93951.72;;;13.92;74.56
53522;BME280;39398;48.382;9.802;2022-08-21T02:43:39;93942.78;;;13.80;75.04
53522;BME280;39398;48.382;9.802;2022-08-21T02:44:40;93942.94;;;13.92;74.60
53522;BME280;39398;48.382;9.802;2022-08-21T02:45:43;93941.72;;;13.88;74.62
53522;BME280;39398;48.382;9.802;2022-08-21T02:46:45;93944.19;;;13.89;74.53
53522;BME280;39398;48.382;9.802;2022-08-21T02:47:48;93946.19;;;13.94;74.66
53522;BME280;39398;48.382;9.802;2022-08-21T02:48:49;93948.66;;;13.95;74.44
53522;BME280;39398;48.382;9.802;2022-08-21T02:49:52;93946.44;;;13.86;74.64
53522;BME280;39398;48.382;9.802;2022-08-21T02:50:56;93941.91;;;13.93;74.51
53522;BME280;39398;48.382;9.802;2022-08-21T02:51:58;93943.16;;;13.90;74.80
53522;BME280;39398;48.382;9.802;2022-08-21T02:53:00;93941.72;;;13.94;74.50
53522;BME280;39398;48.382;9.802;2022-08-21T02:54:02;93944.34;;;14.01;73.89
53522;BME280;39398;48.382;9.802;2022-08-21T02:55:06;93946.03;;;13.89;74.15
53522;BME280;39398;48.382;9.802;2022-08-21T02:56:09;93939.88;;;13.95;74.00
53522;BME280;39398;48.382;9.802;2022-08-21T02:57:11;93942.88;;;14.05;73.53
53522;BME280;39398;48.382;9.802;2022-08-21T02:58:15;93939.41;;;14.05;73.81
53522;BME280;39398;48.382;9.802;2022-08-21T02:59:17;93948.84;;;13.94;73.94
53522;BME280;39398;48.382;9.802;2022-08-21T03:00:19;93932.50;;;13.97;73.93
53522;BME280;39398;48.382;9.802;2022-08-21T03:01:21;93937.78;;;14.04;73.70
53522;BME280;39398;48.382;9.802;2022-08-21T03:02:23;93938.22;;;13.94;74.04
53522;BME280;39398;48.382;9.802;2022-08-21T03:03:27;93944.78;;;13.91;74.11
53522;BME280;39398;48.382;9.802;2022-08-21T03:04:29;93933.13;;;13.99;73.69
53522;BME280;39398;48.382;9.802;2022-08-21T03:05:32;93948.81;;;14.01;73.63
53522;BME280;39398;48.382;9.802;2022-08-21T03:06:34;93943.28;;;14.09;73.37
53522;BME280;39398;48.382;9.802;2022-08-21T03:07:36;93948.16;;;14.12;73.30
53522;BME280;39398;48.382;9.802;2022-08-21T03:08:38;93940.16;;;14.18;73.11
53522;BME280;39398;48.382;9.802;2022-08-21T03:09:39;93939.16;;;14.13;73.12
53522;BME280;39398;48.382;9.802;2022-08-21T03:10:57;93941.19;;;14.17;72.83
53522;BME280;39398;48.382;9.802;2022-08-21T03:11:59;93940.75;;;14.21;72.72
53522;BME280;39398;48.382;9.802;2022-08-21T03:13:00;93938.31;;;14.19;72.51
53522;BME280;39398;48.382;9.802;2022-08-21T03:14:02;93942.59;;;14.20;72.41
53522;BME280;39398;48.382;9.802;2022-08-21T03:15:04;93942.81;;;14.18;72.54
53522;BME280;39398;48.382;9.802;2022-08-21T03:16:07;93936.06;;;14.16;72.29
53522;BME280;39398;48.382;9.802;2022-08-21T03:17:10;93936.72;;;14.11;72.46
53522;BME280;39398;48.382;9.802;2022-08-21T03:18:12;93941.00;;;14.12;72.60
53522;BME280;39398;48.382;9.802;2022-08-21T03:19:14;93939.41;;;14.05;72.76
53522;BME280;39398;48.382;9.802;2022-08-21T03:20:17;93944.13;;;14.03;72.97
53522;BME280;39398;48.382;9.802;2022-08-21T03:21:19;93937.00;;;13.96;73.05
53522;BME280;39398;48.382;9.802;2022-08-21T03:22:20;93936.19;;;13.96;73.14
53522;BME280;39398;48.382;9.802;2022-08-21T03:23:22;93941.94;;;13.86;73.56
53522;BME280;39398;48.382;9.802;2022-08-21T03:24:24;93939.34;;;13.73;73.87
53522;BME280;39398;48.382;9.802;2022-08-21T03:25:27;93941.56;;;13.83;73.86
53522;BME280;39398;48.382;9.802;2022-08-21T03:26:42;93943.19;;;13.84;73.85
53522;BME280;39398;48.382;9.802;2022-08-21T03:27:44;93944.63;;;13.80;74.08
53522;BME280;39398;48.382;9.802;2022-08-21T03:28:45;93938.28;;;13.81;74.09
53522;BME280;39398;48.382;9.802;2022-08-21T03:29:47;93942.19;;;13.85;73.92
53522;BME280;39398;48.382;9.802;2022-08-21T03:30:50;93946.88;;;13.83;74.07
53522;BME280;39398;48.382;9.802;2022-08-21T03:31:53;93940.94;;;13.81;74.33
53522;BME280;39398;48.382;9.802;2022-08-21T03:32:54;93943.22;;;13.70;74.50
53522;BME280;39398;48.382;9.802;2022-08-21T03:33:57;93942.81;;;13.73;74.46
53522;BME280;39398;48.382;9.802;2022-08-21T03:34:59;93946.66;;;13.84;74.54
53522;BME280;39398;48.382;9.802;2022-08-21T03:36:04;93946.44;;;13.86;74.36
53522;BME280;39398;48.382;9.802;2022-08-21T03:37:07;93944.81;;;13.85;74.66
53522;BME280;39398;48.382;9.802;2022-08-21T03:38:09;93942.31;;;13.96;74.63
53522;BME280;39398;48.382;9.802;2022-08-21T03:39:10;93936.59;;;13.93;74.17
53522;BME280;39398;48.382;9.802;2022-08-21T03:40:16;93940.66;;;14.02;74.39
53522;BME280;39398;48.382;9.802;2022-08-21T03:41:18;93942.03;;;14.11;74.19
53522;BME280;39398;48.382;9.802;2022-08-21T03:42:21;93943.84;;;14.17;74.29
53522;BME280;39398;48.382;9.802;2022-08-21T03:43:23;93943.41;;;14.21;74.07
53522;BME280;39398;48.382;9.802;2022-08-21T03:44:25;93940.56;;;14.15;73.27
53522;BME280;39398;48.382;9.802;2022-08-21T03:45:26;93943.50;;;14.07;73.54
53522;BME280;39398;48.382;9.802;2022-08-21T03:46:28;93941.59;;;14.14;74.07
53522;BME280;39398;48.382;9.802;2022-08-21T03:47:29;93943.63;;;14.19;74.20
53522;BME280;39398;48.382;9.802;2022-08-21T03:48:32;93945.25;;;14.20;74.47
53522;BME280;39398;48.382;9.802;2022-08-21T03:49:34;93941.34;;;14.23;74.00
53522;BME280;39398;48.382;9.802;2022-08-21T03:50:38;93940.97;;;14.19;73.59
53522;BME280;39398;48.382;9.802;2022-08-21T03:51:41;93948.50;;;14.22;73.48
53522;BME280;39398;48.382;9.802;2022-08-21T03:52:43;93948.72;;;14.21;73.78
53522;BME280;39398;48.382;9.802;2022-08-21T03:53:44;93950.78;;;14.18;74.79
53522;BME280;39398;48.382;9.802;2022-08-21T03:54:46;93951.00;;;14.17;74.34
53522;BME280;39398;48.382;9.802;2022-08-21T03:55:49;93949.31;;;14.23;74.87
53522;BME280;39398;48.382;9.802;2022-08-21T03:56:51;93953.22;;;14.20;74.27
53522;BME280;39398;48.382;9.802;2022-08-21T03:57:54;93954.19;;;14.26;73.84
53522;BME280;39398;48.382;9.802;2022-08-21T03:58:55;93950.16;;;14.16;73.57
53522;BME280;39398;48.382;9.802;2022-08-21T03:59:57;93949.72;;;14.19;74.32
53522;BME280;39398;48.382;9.802;2022-08-21T04:00:59;93952.00;;;14.16;73.94
53522;BME280;39398;48.382;9.802;2022-08-21T04:02:04;93948.50;;;14.22;73.90
53522;BME280;39398;48.382;9.802;2022-08-21T04:03:06;93950.78;;;14.18;73.43
53522;BME280;39398;48.382;9.802;2022-08-21T04:04:07;93948.94;;;14.19;73.48
53522;BME280;39398;48.382;9.802;2022-08-21T04:05:09;93950.34;;;14.22;73.14
53522;BME280;39398;48.382;9.802;2022-08-21T04:06:11;93947.28;;;14.25;73.34
53522;BME280;39398;48.382;9.802;2022-08-21T04:07:12;93948.06;;;14.25;73.38
53522;BME280;39398;48.382;9.802;2022-08-21T04:08:15;93952.97;;;14.28;73.14
53522;BME280;39398;48.382;9.802;2022-08-21T04:09:17;93950.31;;;14.28;72.95
53522;BME280;39398;48.382;9.802;2022-08-21T04:10:19;93951.72;;;14.31;72.81
53522;BME280;39398;48.382;9.802;2022-08-21T04:11:21;93958.50;;;14.27;73.10
53522;BME280;39398;48.382;9.802;2022-08-21T04:12:22;93959.28;;;14.34;73.93
53522;BME280;39398;48.382;9.802;2022-08-21T04:13:25;93955.81;;;14.33;73.30
53522;BME280;39398;48.382;9.802;2022-08-21T04:14:27;93953.16;;;14.33;73.13
53522;BME280;39398;48.382;9.802;2022-08-21T04:15:29;93957.22;;;14.36;73.26
53522;BME280;39398;48.382;9.802;2022-08-21T04:16:30;93965.38;;;14.34;72.60
53522;BME280;39398;48.382;9.802;2022-08-21T04:17:32;93963.97;;;14.32;72.56
53522;BME280;39398;48.382;9.802;2022-08-21T04:18:33;93958.47;;;14.33;72.85
53522;BME280;39398;48.382;9.802;2022-08-21T04:19:35;93960.97;;;14.22;72.23
53522;BME280;39398;48.382;9.802;2022-08-21T04:20:36;93966.94;;;14.17;72.26
53522;BME280;39398;48.382;9.802;2022-08-21T04:21:38;93956.28;;;14.24;72.09
53522;BME280;39398;48.382;9.802;2022-08-21T04:22:40;93966.09;;;14.23;71.97
53522;BME280;39398;48.382;9.802;2022-08-21T04:23:41;93958.31;;;14.22;72.08
53522;BME280;39398;48.382;9.802;2022-08-21T04:24:43;93966.28;;;14.22;72.04
53522;BME280;39398;48.382;9.802;2022-08-21T04:25:44;93956.94;;;14.12;72.25
53522;BME280;39398;48.382;9.802;2022-08-21T04:26:46;93968.53;;;14.18;72.09
53522;BME280;39398;48.382;9.802;2022-08-21T04:27:47;93968.31;;;14.19;72.12
53522;BME280;39398;48.382;9.802;2022-08-21T04:28:50;93967.31;;;14.21;72.04
53522;BME280;39398;48.382;9.802;2022-08-21T04:29:52;93969.53;;;14.24;71.82
53522;BME280;39398;48.382;9.802;2022-08-21T04:30:53;93968.75;;;14.23;71.62
53522;BME280;39398;48.382;9.802;2022-08-21T04:31:55;93970.50;;;14.29;71.84
53522;BME280;39398;48.382;9.802;2022-08-21T04:32:57;93973.59;;;14.26;71.86
53522;BME280;39398;48.382;9.802;2022-08-21T04:33:59;93972.41;;;14.22;72.38
53522;BME280;39398;48.382;9.802;2022-08-21T04:35:04;93971.38;;;14.23;72.70
53522;BME280;39398;48.382;9.802;2022-08-21T04:36:07;93976.44;;;14.31;73.62
53522;BME280;39398;48.382;9.802;2022-08-21T04:37:09;93977.09;;;14.27;72.93
53522;BME280;39398;48.382;9.802;2022-08-21T04:38:10;93980.97;;;14.24;72.58
53522;BME280;39398;48.382;9.802;2022-08-21T04:39:12;93981.13;;;14.29;72.36
53522;BME280;39398;48.382;9.802;2022-08-21T04:40:15;93977.13;;;14.20;72.51
53522;BME280;39398;48.382;9.802;2022-08-21T04:41:17;93984.41;;;14.31;72.64
53522;BME280;39398;48.382;9.802;2022-08-21T04:42:28;93984.09;;;14.14;72.34
53522;BME280;39398;48.382;9.802;2022-08-21T04:43:29;93984.53;;;14.05;72.73
53522;BME280;39398;48.382;9.802;2022-08-21T04:44:32;93981.50;;;14.01;73.19
53522;BME280;39398;48.382;9.802;2022-08-21T04:45:37;93994.09;;;14.12;73.44
53522;BME280;39398;48.382;9.802;2022-08-21T04:46:38;93987.56;;;14.15;73.17
53522;BME280;39398;48.382;9.802;2022-08-21T04:47:40;93975.06;;;14.22;73.19
53522;BME280;39398;48.382;9.802;2022-08-21T04:48:53;93988.78;;;14.12;72.92
53522;BME280;39398;48.382;9.802;2022-08-21T04:49:55;93987.75;;;14.13;72.79
53522;BME280;39398;48.382;9.802;2022-08-21T04:51:01;93983.09;;;14.09;73.04
53522;BME280;39398;48.382;9.802;2022-08-21T04:52:04;93987.66;;;13.95;73.30
53522;BME280;39398;48.382;9.802;2022-08-21T04:53:08;93980.94;;;13.86;73.59
53522;BME280;39398;48.382;9.802;2022-08-21T04:54:14;93986.69;;;13.76;73.96
53522;BME280;39398;48.382;9.802;2022-08-21T04:55:18;93984.63;;;13.78;73.89
53522;BME280;39398;48.382;9.802;2022-08-21T04:56:22;93981.38;;;13.76;73.88
53522;BME280;39398;48.382;9.802;2022-08-21T04:57:24;93985.44;;;13.85;73.83
53522;BME280;39398;48.382;9.802;2022-08-21T04:58:47;93984.03;;;13.76;74.39
53522;BME280;39398;48.382;9.802;2022-08-21T04:59:51;93986.31;;;13.72;74.24
53522;BME280;39398;48.382;9.802;2022-08-21T05:00:54;93988.13;;;13.65;74.76
53522;BME280;39398;48.382;9.802;2022-08-21T05:01:56;93988.72;;;13.74;74.37
53522;BME280;39398;48.382;9.802;2022-08-21T05:02:59;93991.00;;;13.70;74.42
53522;BME280;39398;48.382;9.802;2022-08-21T05:04:04;93989.16;;;13.71;74.61
53522;BME280;39398;48.382;9.802;2022-08-21T05:05:07;93992.81;;;13.77;74.64
53522;BME280;39398;48.382;9.802;2022-08-21T05:06:10;93986.44;;;13.84;74.27
53522;BME280;39398;48.382;9.802;2022-08-21T05:07:18;93992.16;;;13.94;73.87
53522;BME280;39398;48.382;9.802;2022-08-21T05:08:41;93993.97;;;13.94;73.61
53522;BME280;39398;48.382;9.802;2022-08-21T05:09:43;93994.19;;;13.92;73.82
53522;BME280;39398;48.382;9.802;2022-08-21T05:10:45;93995.63;;;13.88;73.95
53522;BME280;39398;48.382;9.802;2022-08-21T05:11:47;93991.91;;;13.96;73.82
53522;BME280;39398;48.382;9.802;2022-08-21T05:12:49;93991.69;;;14.04;73.75
53522;BME280;39398;48.382;9.802;2022-08-21T05:13:50;93989.47;;;14.01;74.06
53522;BME280;39398;48.382;9.802;2022-08-21T05:14:59;93999.44;;;14.06;73.97
53522;BME280;39398;48.382;9.802;2022-08-21T05:16:00;93996.94;;;14.17;73.78
53522;BME280;39398;48.382;9.802;2022-08-21T05:17:02;93997.72;;;14.25;73.55
53522;BME280;39398;48.382;9.802;2022-08-21T05:18:03;93997.53;;;14.19;73.56
53522;BME280;39398;48.382;9.802;2022-08-21T05:19:06;93995.69;;;14.27;73.50
53522;BME280;39398;48.382;9.802;2022-08-21T05:20:08;93994.25;;;14.24;73.84
53522;BME280;39398;48.382;9.802;2022-08-21T05:21:10;93995.00;;;14.38;73.31
53522;BME280;39398;48.382;9.802;2022-08-21T05:22:11;93997.03;;;14.42;73.04
53522;BME280;39398;48.382;9.802;2022-08-21T05:23:19;93996.16;;;14.49;73.07
53522;BME280;39398;48.382;9.802;2022-08-21T05:24:21;94004.13;;;14.49;73.28
53522;BME280;39398;48.382;9.802;2022-08-21T05:25:23;93999.63;;;14.56;73.48
53522;BME280;39398;48.382;9.802;2022-08-21T05:26:24;94007.97;;;14.59;72.94
53522;BME280;39398;48.382;9.802;2022-08-21T05:27:26;94006.94;;;14.60;73.24
53522;BME280;39398;48.382;9.802;2022-08-21T05:28:32;94000.94;;;14.72;73.02
53522;BME280;39398;48.382;9.802;2022-08-21T05:29:33;94005.78;;;14.81;72.27
53522;BME280;39398;48.382;9.802;2022-08-21T05:30:37;94004.75;;;14.82;71.99
53522;BME280;39398;48.382;9.802;2022-08-21T05:31:38;93997.38;;;14.84;71.80
53522;BME280;39398;48.382;9.802;2022-08-21T05:32:40;93998.69;;;15.00;72.36